Time;durP1;ratioP1;P1;durP2;ratioP2;P2;SDS_P1;SDS_P2;PMS_P1;PMS_P2;Temp;Humidity;BMP_temperature;BMP_pressure;BME280_temperature;BME280_humidity;BME280_pressure;Samples;Min_cycle;Max_cycle;Signal;HPM_P1;HPM_P2
2023/11/04 00:01:53;;;;;;;1.05;0.75;;;9.30;99.90;;;;;;5043381;28;20086;-43
2023/11/04 00:04:18;;;;;;;0.85;0.60;;;9.30;99.90;;;;;;5043346;28;20533;-43
2023/11/04 00:06:47;;;;;;;0.70;0.68;;;9.40;99.90;;;;;;5042765;28;20025;-43
2023/11/04 00:09:12;;;;;;;0.70;0.70;;;9.40;99.90;;;;;;5043212;28;20021;-42
2023/11/04 00:11:38;;;;;;;1.05;0.80;;;9.40;99.90;;;;;;5042685;28;20033;-43
2023/11/04 00:14:04;;;;;;;0.85;0.80;;;9.40;99.90;;;;;;5043580;28;20575;-44
2023/11/04 00:16:29;;;;;;;1.83;0.80;;;9.40;99.90;;;;;;5043586;28;20029;-42
2023/11/04 00:18:55;;;;;;;0.98;0.80;;;9.40;99.90;;;;;;5042162;28;20371;-43
2023/11/04 00:21:20;;;;;;;0.70;0.60;;;9.50;99.90;;;;;;5043119;28;20111;-43
2023/11/04 00:23:46;;;;;;;0.60;0.60;;;9.50;99.90;;;;;;5043574;28;20488;-43
2023/11/04 00:26:12;;;;;;;0.68;0.60;;;9.50;99.90;;;;;;5041909;28;20017;-43
2023/11/04 00:28:40;;;;;;;1.20;0.70;;;9.50;99.90;;;;;;5043727;28;20074;-44
2023/11/04 00:31:07;;;;;;;0.57;0.50;;;9.50;99.90;;;;;;5043111;28;20083;-43
2023/11/04 00:33:33;;;;;;;0.60;0.60;;;9.50;99.90;;;;;;5042013;28;20025;-43
2023/11/04 00:35:59;;;;;;;0.50;0.50;;;9.50;99.90;;;;;;5043321;28;20055;-43
2023/11/04 00:38:24;;;;;;;0.60;0.60;;;9.50;99.90;;;;;;5043163;28;20132;-43
2023/11/04 00:40:50;;;;;;;0.70;0.60;;;9.60;99.90;;;;;;5041820;28;20476;-44
2023/11/04 00:43:16;;;;;;;0.70;0.60;;;9.60;99.90;;;;;;5042168;28;20021;-43
2023/11/04 00:45:41;;;;;;;1.00;0.60;;;9.60;99.90;;;;;;5042947;28;20483;-43
2023/11/04 00:48:07;;;;;;;0.85;0.60;;;9.60;99.90;;;;;;5041918;28;20021;-44
2023/11/04 00:50:32;;;;;;;1.23;0.75;;;9.60;99.90;;;;;;5043320;28;20112;-44
2023/11/04 00:52:58;;;;;;;1.08;0.70;;;9.60;99.90;;;;;;5042125;28;20494;-43
2023/11/04 00:55:23;;;;;;;1.20;0.70;;;9.60;99.90;;;;;;5041562;28;20764;-43
2023/11/04 00:57:49;;;;;;;1.27;0.73;;;9.60;99.90;;;;;;5042781;28;20650;-44
2023/11/04 01:00:14;;;;;;;0.70;0.65;;;9.70;99.90;;;;;;5041991;28;20477;-43
2023/11/04 01:02:40;;;;;;;0.60;0.60;;;9.70;99.90;;;;;;5042284;28;20797;-43
2023/11/04 01:05:07;;;;;;;0.60;0.57;;;9.70;99.90;;;;;;5042406;28;20441;-42
2023/11/04 01:07:33;;;;;;;1.20;0.80;;;9.70;99.90;;;;;;5041211;28;20400;-42
2023/11/04 01:10:01;;;;;;;1.38;0.60;;;9.70;99.90;;;;;;5041964;28;20033;-43
2023/11/04 01:12:29;;;;;;;2.28;0.75;;;9.70;99.90;;;;;;5041461;28;20110;-42
2023/11/04 01:14:55;;;;;;;1.52;0.80;;;9.70;99.90;;;;;;5041116;28;20052;-43
2023/11/04 01:17:20;;;;;;;1.02;0.80;;;9.70;99.90;;;;;;5041944;28;20113;-44
2023/11/04 01:19:46;;;;;;;1.25;0.77;;;9.80;99.90;;;;;;5041953;28;20033;-43
2023/11/04 01:22:11;;;;;;;1.52;0.98;;;9.80;99.90;;;;;;5040467;28;20249;-43
2023/11/04 01:24:37;;;;;;;1.65;0.88;;;9.80;99.90;;;;;;5042306;28;20219;-43
2023/11/04 01:27:07;;;;;;;0.90;0.90;;;9.80;99.90;;;;;;5042108;28;20104;-44
2023/11/04 01:29:33;;;;;;;1.45;0.80;;;9.80;99.90;;;;;;5040853;28;20028;-44
2023/11/04 01:31:58;;;;;;;2.83;1.00;;;9.80;99.90;;;;;;5041562;28;20033;-44
2023/11/04 01:34:24;;;;;;;0.90;0.70;;;9.70;99.90;;;;;;5041010;28;20021;-44
2023/11/04 01:36:50;;;;;;;1.33;0.80;;;9.80;99.90;;;;;;5041145;28;20107;-43
2023/11/04 01:39:15;;;;;;;1.58;0.90;;;9.80;99.90;;;;;;5041375;28;20610;-44
2023/11/04 01:41:41;;;;;;;1.05;0.80;;;9.80;99.90;;;;;;5041617;28;20032;-44
2023/11/04 01:44:06;;;;;;;0.70;0.70;;;9.80;99.90;;;;;;5040406;28;20392;-44
2023/11/04 01:46:33;;;;;;;1.27;0.82;;;9.90;99.90;;;;;;5041607;28;20433;-45
2023/11/04 01:48:59;;;;;;;1.75;0.95;;;9.90;99.90;;;;;;5041311;28;20107;-45
2023/11/04 01:51:25;;;;;;;0.88;0.82;;;9.90;99.90;;;;;;5040707;28;20047;-43
2023/11/04 01:53:53;;;;;;;0.80;0.60;;;9.90;99.90;;;;;;5041319;28;20029;-45
2023/11/04 01:56:34;;;;;;;0.70;0.70;;;9.90;99.90;;;;;;5040951;28;20036;-43
2023/11/04 01:59:02;;;;;;;1.42;0.90;;;9.90;99.90;;;;;;5039909;28;20106;-43
2023/11/04 02:01:28;;;;;;;1.95;1.00;;;10.00;99.90;;;;;;5041514;28;20025;-43
2023/11/04 02:03:54;;;;;;;1.88;0.90;;;9.90;99.90;;;;;;5040865;28;20095;-45
2023/11/04 02:06:20;;;;;;;1.02;0.80;;;10.00;99.90;;;;;;5040958;28;20856;-42
2023/11/04 02:08:46;;;;;;;2.13;1.35;;;10.00;99.90;;;;;;5041733;28;20039;-43
2023/11/04 02:11:18;;;;;;;1.08;0.80;;;10.00;99.90;;;;;;5038966;28;20174;-44
2023/11/04 02:13:44;;;;;;;1.27;0.98;;;10.00;99.90;;;;;;5023181;28;20021;-43
2023/11/04 02:16:09;;;;;;;1.95;1.02;;;10.00;99.90;;;;;;5040144;28;20758;-43
2023/11/04 02:18:35;;;;;;;1.20;0.88;;;10.00;99.90;;;;;;5040162;28;20102;-43
2023/11/04 02:21:00;;;;;;;1.27;1.00;;;10.00;99.90;;;;;;5040442;28;20069;-43
2023/11/04 02:23:26;;;;;;;0.80;0.80;;;10.10;99.90;;;;;;5040912;28;20028;-43
2023/11/04 02:25:53;;;;;;;1.02;0.85;;;10.10;99.90;;;;;;5040508;28;20029;-43
2023/11/04 02:28:19;;;;;;;2.33;0.93;;;10.10;99.90;;;;;;5040556;28;20115;-44
2023/11/04 02:30:44;;;;;;;1.92;0.98;;;10.10;99.90;;;;;;5041181;28;20033;-44
2023/11/04 02:33:10;;;;;;;1.58;0.90;;;10.10;99.90;;;;;;5040989;28;20032;-44
2023/11/04 02:35:36;;;;;;;1.38;1.00;;;10.10;99.90;;;;;;5041344;28;20045;-44
2023/11/04 02:38:02;;;;;;;1.50;1.00;;;10.10;99.90;;;;;;5041834;28;20032;-44
2023/11/04 02:40:30;;;;;;;2.17;1.05;;;10.10;99.90;;;;;;5040911;28;20028;-44
2023/11/04 02:42:56;;;;;;;3.13;1.10;;;10.20;99.90;;;;;;5037804;28;20128;-44
2023/11/04 02:45:21;;;;;;;1.45;0.90;;;10.20;99.90;;;;;;5041335;28;20074;-43
2023/11/04 02:47:47;;;;;;;0.95;0.73;;;10.20;99.90;;;;;;5041033;28;20047;-43
2023/11/04 02:50:13;;;;;;;1.63;1.08;;;10.20;99.90;;;;;;5040398;28;20534;-42
2023/11/04 02:52:39;;;;;;;1.52;1.25;;;10.20;99.90;;;;;;5041392;28;20068;-43
2023/11/04 02:55:06;;;;;;;1.45;0.98;;;10.20;99.90;;;;;;5039578;28;20755;-43
2023/11/04 02:57:31;;;;;;;1.98;1.10;;;10.20;99.90;;;;;;5040775;28;20024;-43
2023/11/04 02:59:57;;;;;;;1.42;0.88;;;10.20;99.90;;;;;;5041198;28;20029;-43
2023/11/04 03:02:22;;;;;;;1.00;1.00;;;10.30;99.90;;;;;;5040152;28;20116;-43
2023/11/04 03:04:48;;;;;;;1.33;0.93;;;10.30;99.90;;;;;;5042344;28;20042;-43
2023/11/04 03:07:13;;;;;;;2.00;1.33;;;10.20;99.90;;;;;;5044626;28;20020;-43
2023/11/04 03:09:39;;;;;;;3.47;1.10;;;10.30;99.90;;;;;;5023998;28;20025;-43
2023/11/04 03:12:05;;;;;;;1.52;1.08;;;10.30;99.90;;;;;;5038643;28;20087;-43
2023/11/04 03:14:30;;;;;;;1.20;1.00;;;10.30;99.90;;;;;;5044126;28;20518;-43
2023/11/04 03:16:58;;;;;;;1.27;1.10;;;10.30;99.90;;;;;;5044144;28;20052;-43
2023/11/04 03:19:27;;;;;;;1.88;1.20;;;10.30;99.90;;;;;;5044303;28;20043;-42
2023/11/04 03:21:56;;;;;;;1.75;1.20;;;10.20;99.90;;;;;;5044108;28;20033;-42
2023/11/04 03:24:22;;;;;;;2.25;1.48;;;10.20;99.90;;;;;;5044616;28;20480;-42
2023/11/04 03:26:48;;;;;;;1.98;1.30;;;10.20;99.90;;;;;;5044522;28;20036;-43
2023/11/04 03:29:14;;;;;;;2.67;1.40;;;10.20;99.90;;;;;;5043466;28;20036;-43
2023/11/04 03:31:40;;;;;;;2.45;1.20;;;10.20;99.90;;;;;;5044848;28;20040;-43
2023/11/04 03:34:05;;;;;;;2.28;1.60;;;10.20;99.90;;;;;;5044209;28;20029;-43
2023/11/04 03:36:31;;;;;;;2.17;1.20;;;10.20;99.90;;;;;;5043466;28;20052;-43
2023/11/04 03:38:56;;;;;;;1.65;1.23;;;10.20;99.90;;;;;;5044065;28;20027;-43
2023/11/04 03:41:22;;;;;;;3.10;1.40;;;10.20;99.90;;;;;;5043763;28;20112;-43
2023/11/04 03:43:52;;;;;;;1.88;1.40;;;10.20;99.90;;;;;;5043844;28;20049;-44
2023/11/04 03:46:18;;;;;;;3.70;1.40;;;10.20;99.90;;;;;;5044105;28;20510;-44
2023/11/04 03:48:45;;;;;;;2.15;1.40;;;10.20;99.90;;;;;;5044201;28;20071;-43
2023/11/04 03:51:11;;;;;;;2.25;1.23;;;10.20;99.90;;;;;;5043042;28;20080;-43
2023/11/04 03:53:37;;;;;;;1.67;1.20;;;10.20;99.90;;;;;;5044393;28;20032;-43
2023/11/04 03:56:03;;;;;;;3.70;1.83;;;10.30;99.90;;;;;;5044343;28;20034;-44
2023/11/04 03:58:29;;;;;;;2.25;1.33;;;10.20;99.90;;;;;;5042257;28;20082;-45
2023/11/04 04:00:54;;;;;;;1.40;1.20;;;10.30;99.90;;;;;;5044147;28;20089;-44
2023/11/04 04:03:20;;;;;;;2.35;1.35;;;10.30;99.90;;;;;;5043179;28;20071;-43
2023/11/04 04:05:46;;;;;;;3.15;1.27;;;10.30;99.90;;;;;;5043285;28;20037;-43
2023/11/04 04:08:11;;;;;;;2.75;1.30;;;10.30;99.90;;;;;;5043189;28;20033;-44
2023/11/04 04:10:37;;;;;;;1.35;1.20;;;10.30;99.90;;;;;;5043152;28;20527;-43
2023/11/04 04:13:03;;;;;;;1.70;1.27;;;10.30;99.90;;;;;;5042259;28;20503;-43
2023/11/04 04:15:28;;;;;;;1.67;1.58;;;10.40;99.90;;;;;;5042733;28;20032;-43
2023/11/04 04:17:54;;;;;;;2.83;1.60;;;10.30;99.90;;;;;;5041868;28;20029;-43
2023/11/04 04:20:22;;;;;;;3.50;1.48;;;10.40;99.90;;;;;;5043276;28;20033;-44
2023/11/04 04:22:48;;;;;;;2.17;1.40;;;10.40;99.90;;;;;;5043209;28;20043;-44
2023/11/04 04:25:14;;;;;;;1.48;1.38;;;10.40;99.90;;;;;;5041744;28;20748;-42
2023/11/04 04:27:42;;;;;;;1.40;1.17;;;10.40;99.90;;;;;;5043395;28;20032;-43
2023/11/04 04:30:08;;;;;;;2.67;1.42;;;10.40;99.90;;;;;;5043016;28;20108;-42
2023/11/04 04:32:36;;;;;;;2.13;1.60;;;10.40;99.90;;;;;;5042544;28;20040;-43
2023/11/04 04:35:02;;;;;;;1.42;1.20;;;10.30;99.90;;;;;;5041968;28;20460;-43
2023/11/04 04:37:28;;;;;;;1.42;1.30;;;10.30;99.90;;;;;;5042712;28;20044;-43
2023/11/04 04:39:54;;;;;;;5.57;1.67;;;10.30;99.90;;;;;;5041774;28;20029;-43
2023/11/04 04:42:19;;;;;;;1.55;1.30;;;10.20;99.90;;;;;;5041951;28;20029;-43
2023/11/04 04:44:45;;;;;;;1.50;1.33;;;10.20;99.90;;;;;;5042620;28;20040;-42
2023/11/04 04:47:10;;;;;;;1.50;1.40;;;10.20;99.90;;;;;;5041668;28;20029;-43
2023/11/04 04:49:36;;;;;;;1.35;1.25;;;10.20;99.90;;;;;;5042466;28;20032;-43
2023/11/04 04:52:02;;;;;;;2.15;1.30;;;10.20;99.90;;;;;;5042587;28;20032;-44
2023/11/04 04:54:27;;;;;;;2.20;1.35;;;10.10;99.90;;;;;;5042065;28;20039;-43
2023/11/04 04:56:53;;;;;;;1.98;1.30;;;10.20;99.90;;;;;;5042946;28;20959;-42
2023/11/04 04:59:18;;;;;;;1.90;1.30;;;10.20;99.90;;;;;;5042651;28;20021;-42
2023/11/04 05:01:44;;;;;;;1.95;1.30;;;10.10;99.90;;;;;;5042359;28;20025;-42
2023/11/04 05:04:09;;;;;;;2.05;1.40;;;10.20;99.90;;;;;;5042950;28;20052;-44
2023/11/04 05:06:35;;;;;;;2.00;1.60;;;10.10;99.90;;;;;;5042752;28;20061;-44
2023/11/04 05:09:01;;;;;;;1.67;1.55;;;10.10;99.90;;;;;;5042351;28;20025;-44
2023/11/04 05:11:27;;;;;;;1.45;1.33;;;10.10;99.90;;;;;;5042566;28;20102;-44
2023/11/04 05:13:53;;;;;;;3.38;1.58;;;10.10;99.90;;;;;;5043262;28;20026;-44
2023/11/04 05:16:19;;;;;;;3.05;1.67;;;10.10;99.90;;;;;;5041807;28;20368;-43
2023/11/04 05:18:45;;;;;;;1.90;1.70;;;10.10;99.90;;;;;;5043033;28;20021;-43
2023/11/04 05:21:11;;;;;;;2.45;1.45;;;10.10;99.90;;;;;;5041315;28;20029;-43
2023/11/04 05:23:36;;;;;;;1.55;1.45;;;10.10;99.90;;;;;;5042005;28;20021;-44
2023/11/04 05:26:02;;;;;;;2.47;1.58;;;10.10;99.90;;;;;;5041630;28;20039;-42
2023/11/04 05:28:28;;;;;;;1.60;1.33;;;10.10;99.90;;;;;;5040865;28;20025;-42
2023/11/04 05:30:55;;;;;;;1.42;1.33;;;10.10;99.90;;;;;;5042058;28;20678;-43
2023/11/04 05:33:20;;;;;;;2.35;1.70;;;10.20;99.90;;;;;;5041796;28;20044;-43
2023/11/04 05:35:46;;;;;;;2.28;1.60;;;10.10;99.90;;;;;;5041035;28;20049;-43
2023/11/04 05:38:12;;;;;;;2.15;1.58;;;10.20;99.90;;;;;;5041877;28;20499;-43
2023/11/04 05:40:38;;;;;;;2.75;1.80;;;10.20;99.90;;;;;;5039376;28;20041;-43
2023/11/04 05:43:04;;;;;;;2.40;1.58;;;10.20;99.90;;;;;;5040892;28;20380;-42
2023/11/04 05:45:29;;;;;;;1.50;1.40;;;10.20;99.90;;;;;;5042615;28;20060;-44
2023/11/04 05:47:55;;;;;;;1.60;1.20;;;10.20;99.90;;;;;;5041819;28;20124;-44
2023/11/04 05:50:20;;;;;;;1.95;1.20;;;10.20;99.90;;;;;;5041444;28;20365;-43
2023/11/04 05:52:48;;;;;;;3.50;1.35;;;10.20;99.90;;;;;;5041694;28;20800;-43
2023/11/04 05:55:16;;;;;;;4.40;1.60;;;10.20;99.90;;;;;;5040772;28;20047;-43
2023/11/04 05:57:42;;;;;;;2.50;1.40;;;10.30;99.90;;;;;;5040803;28;20115;-44
2023/11/04 06:00:11;;;;;;;3.45;1.60;;;10.30;99.90;;;;;;5041328;28;20021;-44
2023/11/04 06:02:40;;;;;;;3.88;1.70;;;10.30;99.90;;;;;;5039086;28;20799;-43
2023/11/04 06:05:10;;;;;;;3.20;1.70;;;10.30;99.90;;;;;;5036846;28;20112;-44
2023/11/04 06:07:36;;;;;;;2.78;1.60;;;10.30;99.90;;;;;;5040773;28;20807;-43
2023/11/04 06:10:03;;;;;;;2.88;1.50;;;10.30;99.90;;;;;;5041481;28;20109;-44
2023/11/04 06:12:29;;;;;;;3.75;2.03;;;10.30;99.90;;;;;;5039612;28;20083;-43
2023/11/04 06:14:54;;;;;;;2.30;1.70;;;10.30;99.90;;;;;;5041336;28;20671;-44
2023/11/04 06:17:20;;;;;;;2.97;1.90;;;10.30;99.90;;;;;;5040007;28;20044;-43
2023/11/04 06:19:46;;;;;;;5.22;1.88;;;10.30;99.90;;;;;;5040963;28;20025;-43
2023/11/04 06:22:12;;;;;;;5.10;1.90;;;10.30;99.90;;;;;;5039850;28;20025;-42
2023/11/04 06:24:38;;;;;;;3.60;2.10;;;10.30;99.90;;;;;;5040565;28;20027;-43
2023/11/04 06:27:07;;;;;;;1.83;1.58;;;10.40;99.90;;;;;;5040838;28;20036;-47
2023/11/04 06:29:32;;;;;;;3.13;1.40;;;10.40;99.90;;;;;;5040981;28;20099;-43
2023/11/04 06:31:58;;;;;;;2.53;1.70;;;10.40;99.90;;;;;;5040673;28;20037;-44
2023/11/04 06:34:24;;;;;;;3.28;1.83;;;10.40;99.90;;;;;;5039363;28;20025;-42
2023/11/04 06:36:51;;;;;;;3.70;1.85;;;10.40;99.90;;;;;;5039253;28;20475;-42
2023/11/04 06:39:17;;;;;;;2.03;1.25;;;10.40;99.90;;;;;;5037598;28;20041;-42
2023/11/04 06:41:43;;;;;;;4.20;1.80;;;10.40;99.90;;;;;;5025000;28;20033;-43
2023/11/04 06:44:09;;;;;;;1.80;1.40;;;10.50;99.90;;;;;;5033184;28;20098;-43
2023/11/04 06:46:34;;;;;;;2.25;2.08;;;10.40;99.90;;;;;;5038399;28;20559;-43
2023/11/04 06:49:00;;;;;;;2.42;1.48;;;10.50;99.90;;;;;;5038484;28;20147;-43
2023/11/04 06:51:26;;;;;;;4.13;1.77;;;10.50;99.90;;;;;;5039964;28;20037;-43
2023/11/04 06:53:53;;;;;;;2.20;1.60;;;10.50;99.90;;;;;;5038392;28;20106;-43
2023/11/04 06:56:20;;;;;;;3.78;1.77;;;10.40;99.90;;;;;;5040041;28;20029;-44
2023/11/04 06:58:45;;;;;;;3.45;1.73;;;10.40;99.90;;;;;;5039210;28;20100;-43
2023/11/04 07:01:17;;;;;;;2.80;1.38;;;10.40;99.90;;;;;;5048170;28;20044;-43
2023/11/04 07:03:45;;;;;;;2.00;1.67;;;10.40;99.90;;;;;;5038613;28;20148;-44
2023/11/04 07:06:14;;;;;;;2.55;1.77;;;10.40;99.90;;;;;;5039871;28;20076;-44
2023/11/04 07:08:42;;;;;;;3.63;1.63;;;10.40;99.90;;;;;;5039860;28;20029;-44
2023/11/04 07:11:14;;;;;;;3.50;1.67;;;10.40;99.90;;;;;;5038312;28;20083;-43
2023/11/04 07:13:40;;;;;;;3.85;1.77;;;10.40;99.90;;;;;;5026253;28;20490;-43
2023/11/04 07:16:08;;;;;;;2.75;1.50;;;10.40;99.90;;;;;;5028635;28;20029;-44
2023/11/04 07:18:33;;;;;;;5.05;1.77;;;10.40;99.90;;;;;;5030460;28;20044;-42
2023/11/04 07:20:59;;;;;;;4.32;1.70;;;10.40;99.90;;;;;;5029438;28;20029;-44
2023/11/04 07:23:28;;;;;;;1.73;1.40;;;10.40;99.90;;;;;;5033628;28;20036;-45
2023/11/04 07:25:54;;;;;;;1.98;1.40;;;10.40;99.90;;;;;;5030423;28;20125;-44
2023/11/04 07:28:20;;;;;;;2.88;1.48;;;10.40;99.90;;;;;;5030768;28;20025;-45
2023/11/04 07:30:45;;;;;;;2.42;1.60;;;10.40;99.90;;;;;;5032709;28;20104;-43
2023/11/04 07:33:11;;;;;;;2.88;1.45;;;10.40;99.90;;;;;;5028752;28;20693;-43
2023/11/04 07:35:37;;;;;;;2.42;1.63;;;10.40;99.90;;;;;;5026866;28;20542;-43
2023/11/04 07:38:02;;;;;;;2.22;1.52;;;10.40;99.90;;;;;;5034252;28;20079;-43
2023/11/04 07:40:28;;;;;;;2.47;1.50;;;10.40;99.90;;;;;;5032058;28;20044;-44
2023/11/04 07:42:54;;;;;;;2.40;1.40;;;10.40;99.90;;;;;;5026812;28;20699;-44
2023/11/04 07:45:19;;;;;;;2.85;1.60;;;10.40;99.90;;;;;;5031685;28;20025;-44
2023/11/04 07:47:45;;;;;;;4.03;2.35;;;10.40;99.90;;;;;;5030723;28;20037;-45
2023/11/04 07:50:11;;;;;;;5.40;2.45;;;10.40;99.90;;;;;;5029166;28;20040;-42
2023/11/04 07:52:42;;;;;;;3.70;1.73;;;10.30;99.90;;;;;;5031348;28;20041;-43
2023/11/04 07:55:08;;;;;;;3.38;1.60;;;10.30;99.90;;;;;;5037153;28;20040;-43
2023/11/04 07:57:38;;;;;;;3.58;1.80;;;10.30;99.90;;;;;;5032092;28;20026;-44
2023/11/04 08:00:07;;;;;;;2.30;1.70;;;10.30;99.90;;;;;;5040949;28;20136;-42
2023/11/04 08:02:36;;;;;;;1.77;1.55;;;10.30;99.90;;;;;;5033843;28;21926;-44
2023/11/04 08:05:02;;;;;;;2.83;1.85;;;10.30;99.90;;;;;;5035027;28;20029;-44
2023/11/04 08:07:29;;;;;;;2.47;1.30;;;10.30;99.90;;;;;;5032712;28;20024;-45
2023/11/04 08:09:58;;;;;;;3.53;1.75;;;10.40;99.90;;;;;;5034930;28;20040;-43
2023/11/04 08:12:24;;;;;;;3.70;1.50;;;10.40;99.90;;;;;;5040814;28;20052;-43
2023/11/04 08:14:50;;;;;;;4.95;2.28;;;10.40;99.90;;;;;;5040029;28;20018;-43
2023/11/04 08:17:16;;;;;;;5.28;2.97;;;10.40;99.90;;;;;;5035108;28;20033;-44
2023/11/04 08:19:41;;;;;;;3.08;1.65;;;10.40;99.90;;;;;;5037852;28;20036;-43
2023/11/04 08:22:09;;;;;;;3.10;1.90;;;10.50;99.90;;;;;;5034236;28;20060;-43
2023/11/04 08:24:34;;;;;;;3.70;1.58;;;10.50;99.90;;;;;;5029471;28;20115;-44
2023/11/04 08:27:00;;;;;;;2.75;1.40;;;10.50;99.90;;;;;;5030603;28;20040;-43
2023/11/04 08:29:26;;;;;;;2.10;1.20;;;10.60;99.90;;;;;;5041462;28;20247;-43
2023/11/04 08:31:51;;;;;;;2.88;1.45;;;10.60;99.90;;;;;;5042834;28;20033;-43
2023/11/04 08:34:17;;;;;;;1.80;1.30;;;10.60;99.90;;;;;;5041232;28;20633;-43
2023/11/04 08:36:43;;;;;;;1.40;1.10;;;10.60;99.90;;;;;;5042985;28;20049;-43
2023/11/04 08:39:12;;;;;;;2.58;1.50;;;10.70;99.90;;;;;;5040957;28;20376;-45
2023/11/04 08:41:38;;;;;;;3.65;2.05;;;10.70;99.90;;;;;;5039865;28;20079;-43
2023/11/04 08:44:04;;;;;;;4.93;1.50;;;10.70;99.90;;;;;;5041939;28;20036;-43
2023/11/04 08:46:29;;;;;;;2.80;1.48;;;10.70;99.90;;;;;;5042140;28;20025;-43
2023/11/04 08:48:55;;;;;;;2.08;1.20;;;10.70;99.90;;;;;;5041914;28;20033;-43
2023/11/04 08:51:21;;;;;;;2.75;1.50;;;10.80;99.90;;;;;;5035640;28;20587;-43
2023/11/04 08:53:49;;;;;;;3.65;1.70;;;10.80;99.90;;;;;;5041821;28;20035;-43
2023/11/04 08:56:15;;;;;;;1.65;1.17;;;10.90;99.90;;;;;;5037649;28;20029;-46
2023/11/04 08:58:44;;;;;;;2.72;1.20;;;11.00;99.90;;;;;;5040576;28;20024;-44
2023/11/04 09:01:10;;;;;;;2.92;1.40;;;11.00;99.90;;;;;;5030126;28;20025;-43
2023/11/04 09:03:38;;;;;;;2.13;1.00;;;11.10;99.90;;;;;;5037780;28;20067;-43
2023/11/04 09:06:07;;;;;;;2.80;1.20;;;11.10;99.90;;;;;;5041904;28;20083;-43
2023/11/04 09:08:33;;;;;;;3.65;1.40;;;11.20;99.90;;;;;;5041947;28;20047;-44
2023/11/04 09:10:59;;;;;;;1.08;0.93;;;11.20;99.90;;;;;;5039233;28;20063;-43
2023/11/04 09:13:26;;;;;;;3.80;1.10;;;11.20;99.90;;;;;;5029980;28;20132;-43
2023/11/04 09:15:58;;;;;;;2.30;1.00;;;11.20;99.90;;;;;;5029865;28;20144;-43
2023/11/04 09:18:24;;;;;;;1.40;1.00;;;11.30;99.90;;;;;;5036035;28;20036;-44
2023/11/04 09:20:55;;;;;;;1.92;0.90;;;11.30;99.90;;;;;;5033840;28;20033;-44
2023/11/04 09:23:21;;;;;;;2.08;0.95;;;11.30;99.90;;;;;;5026975;28;20020;-44
2023/11/04 09:25:47;;;;;;;0.82;0.80;;;11.40;99.90;;;;;;5031755;28;20598;-43
2023/11/04 09:28:13;;;;;;;3.08;1.00;;;11.40;99.90;;;;;;5032494;28;20507;-43
2023/11/04 09:30:38;;;;;;;1.63;1.00;;;11.50;99.90;;;;;;5031605;28;20614;-43
2023/11/04 09:33:04;;;;;;;1.05;0.70;;;11.60;99.90;;;;;;5029048;28;20210;-43
2023/11/04 09:35:30;;;;;;;1.35;1.00;;;11.60;99.90;;;;;;5032442;28;20766;-43
2023/11/04 09:37:56;;;;;;;1.80;1.00;;;11.70;99.90;;;;;;5031722;28;20124;-43
2023/11/04 09:40:21;;;;;;;1.90;1.00;;;11.80;99.90;;;;;;5031669;28;20052;-43
2023/11/04 09:42:48;;;;;;;1.30;0.88;;;11.90;99.90;;;;;;5033033;28;20041;-43
2023/11/04 09:45:15;;;;;;;1.80;0.95;;;12.00;99.90;;;;;;5034627;28;20156;-43
2023/11/04 09:47:41;;;;;;;1.52;0.90;;;12.10;99.90;;;;;;5039236;28;20029;-43
2023/11/04 09:50:08;;;;;;;2.40;1.10;;;12.20;99.90;;;;;;5040935;28;20021;-43
2023/11/04 09:52:38;;;;;;;2.38;0.90;;;12.40;99.90;;;;;;5040443;28;20503;-43
2023/11/04 09:55:06;;;;;;;1.90;0.80;;;12.40;99.90;;;;;;5040354;28;20805;-44
2023/11/04 09:57:36;;;;;;;1.45;0.90;;;12.50;99.90;;;;;;5031698;28;20029;-44
2023/11/04 10:00:03;;;;;;;3.28;0.90;;;12.50;99.90;;;;;;5031427;28;20131;-43
2023/11/04 10:02:31;;;;;;;1.25;0.57;;;12.40;99.90;;;;;;5025566;28;20116;-43
2023/11/04 10:04:58;;;;;;;1.98;0.90;;;12.30;99.90;;;;;;5034028;28;20039;-44
2023/11/04 10:07:24;;;;;;;1.40;0.70;;;12.30;99.90;;;;;;5040699;28;20061;-44
2023/11/04 10:09:50;;;;;;;1.90;0.77;;;12.20;99.90;;;;;;5040490;28;20020;-45
2023/11/04 10:12:16;;;;;;;1.45;0.80;;;12.20;99.90;;;;;;5040616;28;20047;-43
2023/11/04 10:14:44;;;;;;;1.75;1.00;;;12.20;99.90;;;;;;5040564;28;20033;-45
2023/11/04 10:17:10;;;;;;;1.27;0.80;;;12.20;99.90;;;;;;5040476;28;20967;-44
2023/11/04 10:19:36;;;;;;;1.25;0.80;;;12.20;99.90;;;;;;5042030;28;20028;-44
2023/11/04 10:22:03;;;;;;;1.00;0.63;;;12.20;99.90;;;;;;5040905;28;20673;-44
2023/11/04 10:24:29;;;;;;;2.17;1.00;;;12.30;99.90;;;;;;5039683;28;20480;-45
2023/11/04 10:26:54;;;;;;;2.15;0.82;;;12.30;99.90;;;;;;5040686;28;20035;-45
2023/11/04 10:29:20;;;;;;;2.30;0.82;;;12.20;99.90;;;;;;5023192;28;20029;-44
2023/11/04 10:31:47;;;;;;;2.90;1.02;;;12.20;99.90;;;;;;5033744;28;20029;-45
2023/11/04 10:34:15;;;;;;;0.70;0.70;;;12.30;99.90;;;;;;5040303;28;20127;-45
2023/11/04 10:36:44;;;;;;;2.58;1.00;;;12.30;99.90;;;;;;5040199;28;20056;-44
2023/11/04 10:39:13;;;;;;;2.35;1.05;;;12.30;99.90;;;;;;5039476;28;20401;-44
2023/11/04 10:41:41;;;;;;;1.17;1.02;;;12.30;99.90;;;;;;5040167;28;20032;-44
2023/11/04 10:44:28;;;;;;;1.88;0.90;;;12.30;99.90;;;;;;5039483;28;20037;-44
2023/11/04 10:47:33;;;;;;;2.05;0.60;;;12.30;99.90;;;;;;5038876;28;20032;-44
2023/11/04 10:50:03;;;;;;;1.38;0.63;;;12.40;99.90;;;;;;5040518;28;20036;-43
2023/11/04 10:52:34;;;;;;;0.77;0.65;;;12.40;99.90;;;;;;5038973;28;20052;-45
2023/11/04 10:55:04;;;;;;;0.80;0.52;;;12.40;99.90;;;;;;5039800;28;20911;-44
2023/11/04 10:57:59;;;;;;;2.20;0.60;;;12.40;99.90;;;;;;5038998;28;20025;-44
2023/11/04 11:00:25;;;;;;;1.38;0.63;;;12.40;99.90;;;;;;5019560;28;20034;-44
2023/11/04 11:02:52;;;;;;;0.90;0.70;;;12.30;99.90;;;;;;5034027;28;20021;-44
2023/11/04 11:05:23;;;;;;;1.58;0.70;;;12.30;99.90;;;;;;5038662;28;20029;-46
2023/11/04 11:07:49;;;;;;;0.90;0.73;;;12.20;99.90;;;;;;5039709;28;20064;-44
2023/11/04 11:10:19;;;;;;;1.83;0.70;;;12.30;99.90;;;;;;5039247;28;20543;-45
2023/11/04 11:12:59;;;;;;;1.52;0.70;;;12.30;99.90;;;;;;5039104;28;20029;-45
2023/11/04 11:15:27;;;;;;;1.50;0.70;;;12.30;99.90;;;;;;5040048;28;20026;-43
2023/11/04 11:17:59;;;;;;;0.95;0.60;;;12.30;99.90;;;;;;5039685;28;20032;-44
2023/11/04 11:20:28;;;;;;;1.15;0.60;;;12.30;99.90;;;;;;5039291;28;20021;-43
2023/11/04 11:23:03;;;;;;;1.02;0.70;;;12.30;99.90;;;;;;5040155;28;20025;-44
2023/11/04 11:25:36;;;;;;;1.95;0.60;;;12.30;99.90;;;;;;5040466;28;20033;-44
2023/11/04 11:28:04;;;;;;;2.22;0.55;;;12.30;99.90;;;;;;5042171;28;20025;-45
2023/11/04 11:30:37;;;;;;;1.48;0.55;;;12.30;99.90;;;;;;5043266;28;20789;-45
2023/11/04 11:33:10;;;;;;;0.60;0.50;;;12.20;99.90;;;;;;5042719;28;20037;-44
2023/11/04 11:35:52;;;;;;;0.80;0.40;;;12.20;99.90;;;;;;5037852;28;20044;-44
2023/11/04 11:38:18;;;;;;;0.70;0.40;;;12.30;99.90;;;;;;5043486;28;20546;-45
2023/11/04 11:40:43;;;;;;;0.55;0.40;;;12.20;99.90;;;;;;5044094;28;20033;-43
2023/11/04 11:43:09;;;;;;;1.92;0.60;;;12.30;99.90;;;;;;5042475;28;20028;-44
2023/11/04 11:45:36;;;;;;;0.73;0.50;;;12.30;99.90;;;;;;5043455;28;20040;-43
2023/11/04 11:48:02;;;;;;;0.70;0.50;;;12.20;99.90;;;;;;5042693;28;20021;-43
2023/11/04 11:50:28;;;;;;;0.52;0.40;;;12.20;99.90;;;;;;5041016;28;20047;-44
2023/11/04 11:52:54;;;;;;;1.23;0.65;;;12.20;99.90;;;;;;5042946;28;20071;-44
2023/11/04 11:55:19;;;;;;;2.20;0.95;;;12.20;99.90;;;;;;5042468;28;20476;-44
2023/11/04 11:57:51;;;;;;;1.60;0.60;;;12.10;99.90;;;;;;5043555;28;20036;-44
2023/11/04 12:00:17;;;;;;;0.47;0.38;;;12.10;99.90;;;;;;5041971;28;20036;-44
2023/11/04 12:02:43;;;;;;;0.75;0.40;;;12.10;99.90;;;;;;5042571;28;20044;-43
2023/11/04 12:05:09;;;;;;;1.00;0.55;;;12.10;99.90;;;;;;5041111;28;20033;-44
2023/11/04 12:07:35;;;;;;;0.82;0.40;;;12.10;99.90;;;;;;5038971;28;20042;-44
2023/11/04 12:10:01;;;;;;;1.60;0.73;;;12.00;99.90;;;;;;5035846;28;20836;-44
2023/11/04 12:12:27;;;;;;;0.82;0.50;;;11.90;99.90;;;;;;5042624;28;20670;-44
2023/11/04 12:15:02;;;;;;;1.50;0.70;;;11.90;99.90;;;;;;5039688;28;20456;-44
2023/11/04 12:17:27;;;;;;;1.73;0.68;;;11.90;99.90;;;;;;5041555;28;20029;-44
2023/11/04 12:19:53;;;;;;;0.93;0.60;;;11.80;99.90;;;;;;5042410;28;20354;-43
2023/11/04 12:22:19;;;;;;;0.57;0.47;;;11.80;99.90;;;;;;5042608;28;20243;-44
2023/11/04 12:24:45;;;;;;;1.05;0.60;;;11.80;99.90;;;;;;5041504;28;20053;-45
2023/11/04 12:27:10;;;;;;;0.80;0.60;;;11.80;99.90;;;;;;5041503;28;20032;-45
2023/11/04 12:29:38;;;;;;;1.27;0.57;;;11.80;99.90;;;;;;5042111;28;20056;-45
2023/11/04 12:32:04;;;;;;;1.60;0.65;;;11.80;99.90;;;;;;5041446;28;20037;-45
2023/11/04 12:34:29;;;;;;;1.10;0.60;;;11.90;99.90;;;;;;5041804;28;20083;-44
2023/11/04 12:36:55;;;;;;;1.70;0.57;;;11.80;99.90;;;;;;5041958;28;20053;-44
2023/11/04 12:39:21;;;;;;;0.60;0.30;;;11.80;99.90;;;;;;5042137;28;20082;-45
2023/11/04 12:41:47;;;;;;;1.35;0.50;;;11.80;99.90;;;;;;5042406;28;20797;-45
2023/11/04 12:44:13;;;;;;;0.82;0.50;;;11.70;99.90;;;;;;5034418;28;20030;-44
2023/11/04 12:46:39;;;;;;;2.92;0.70;;;11.70;99.90;;;;;;5038980;28;20052;-45